sensor_id;sensor_type;location;lat;lon;timestamp;P1;durP1;ratioP1;P2;durP2;ratioP2
12141;SDS011;6134;59.284;18.022;2022-11-13T00:02:10;7.22;;;2.78;;
12141;SDS011;6134;59.284;18.022;2022-11-13T00:04:57;6.57;;;2.90;;
12141;SDS011;6134;59.284;18.022;2022-11-13T00:07:45;3.75;;;2.60;;
12141;SDS011;6134;59.284;18.022;2022-11-13T00:10:33;5.88;;;3.25;;
12141;SDS011;6134;59.284;18.022;2022-11-13T00:13:20;4.63;;;3.03;;
12141;SDS011;6134;59.284;18.022;2022-11-13T00:16:14;5.47;;;2.80;;
12141;SDS011;6134;59.284;18.022;2022-11-13T00:19:01;6.18;;;2.97;;
12141;SDS011;6134;59.284;18.022;2022-11-13T00:21:48;4.40;;;2.80;;
12141;SDS011;6134;59.284;18.022;2022-11-13T00:24:36;6.75;;;2.75;;
12141;SDS011;6134;59.284;18.022;2022-11-13T00:27:24;5.50;;;3.00;;
12141;SDS011;6134;59.284;18.022;2022-11-13T00:30:12;6.00;;;3.47;;
12141;SDS011;6134;59.284;18.022;2022-11-13T00:33:03;8.40;;;3.08;;
12141;SDS011;6134;59.284;18.022;2022-11-13T00:35:51;5.13;;;2.50;;
12141;SDS011;6134;59.284;18.022;2022-11-13T00:38:38;4.75;;;2.45;;
12141;SDS011;6134;59.284;18.022;2022-11-13T00:41:28;3.15;;;2.33;;
12141;SDS011;6134;59.284;18.022;2022-11-13T00:44:17;4.20;;;2.70;;
12141;SDS011;6134;59.284;18.022;2022-11-13T00:47:05;3.60;;;2.35;;
12141;SDS011;6134;59.284;18.022;2022-11-13T00:49:59;7.45;;;2.63;;
12141;SDS011;6134;59.284;18.022;2022-11-13T00:52:50;5.82;;;2.63;;
12141;SDS011;6134;59.284;18.022;2022-11-13T00:55:37;4.78;;;2.88;;
12141;SDS011;6134;59.284;18.022;2022-11-13T00:58:26;4.70;;;2.35;;
12141;SDS011;6134;59.284;18.022;2022-11-13T01:01:17;3.70;;;2.58;;
12141;SDS011;6134;59.284;18.022;2022-11-13T01:04:04;4.97;;;2.47;;
12141;SDS011;6134;59.284;18.022;2022-11-13T01:06:51;5.05;;;2.53;;
12141;SDS011;6134;59.284;18.022;2022-11-13T01:09:39;3.65;;;2.20;;
12141;SDS011;6134;59.284;18.022;2022-11-13T01:12:26;4.68;;;2.38;;
12141;SDS011;6134;59.284;18.022;2022-11-13T01:15:14;3.88;;;2.58;;
12141;SDS011;6134;59.284;18.022;2022-11-13T01:18:03;5.53;;;2.90;;
12141;SDS011;6134;59.284;18.022;2022-11-13T01:20:50;4.05;;;2.28;;
12141;SDS011;6134;59.284;18.022;2022-11-13T01:23:37;3.53;;;2.05;;
12141;SDS011;6134;59.284;18.022;2022-11-13T01:26:25;3.67;;;2.10;;
12141;SDS011;6134;59.284;18.022;2022-11-13T01:29:13;4.80;;;2.35;;
12141;SDS011;6134;59.284;18.022;2022-11-13T01:32:00;3.95;;;2.42;;
12141;SDS011;6134;59.284;18.022;2022-11-13T01:34:48;3.42;;;2.22;;
12141;SDS011;6134;59.284;18.022;2022-11-13T01:37:36;4.05;;;1.95;;
12141;SDS011;6134;59.284;18.022;2022-11-13T01:40:23;2.60;;;1.98;;
12141;SDS011;6134;59.284;18.022;2022-11-13T01:43:13;5.20;;;2.03;;
12141;SDS011;6134;59.284;18.022;2022-11-13T01:46:07;4.65;;;1.85;;
12141;SDS011;6134;59.284;18.022;2022-11-13T01:48:57;3.42;;;2.20;;
12141;SDS011;6134;59.284;18.022;2022-11-13T01:51:47;2.97;;;1.98;;
12141;SDS011;6134;59.284;18.022;2022-11-13T01:54:36;2.88;;;1.95;;
12141;SDS011;6134;59.284;18.022;2022-11-13T01:57:23;4.40;;;2.10;;
12141;SDS011;6134;59.284;18.022;2022-11-13T02:00:11;4.50;;;2.20;;
12141;SDS011;6134;59.284;18.022;2022-11-13T02:02:58;4.18;;;1.95;;
12141;SDS011;6134;59.284;18.022;2022-11-13T02:05:45;4.15;;;1.95;;
12141;SDS011;6134;59.284;18.022;2022-11-13T02:08:34;3.35;;;1.85;;
12141;SDS011;6134;59.284;18.022;2022-11-13T02:11:21;3.40;;;1.88;;
12141;SDS011;6134;59.284;18.022;2022-11-13T02:14:08;5.25;;;1.85;;
12141;SDS011;6134;59.284;18.022;2022-11-13T02:16:57;2.70;;;1.80;;
12141;SDS011;6134;59.284;18.022;2022-11-13T02:19:46;2.40;;;1.70;;
12141;SDS011;6134;59.284;18.022;2022-11-13T02:22:35;3.65;;;1.90;;
12141;SDS011;6134;59.284;18.022;2022-11-13T02:25:26;6.30;;;1.90;;
12141;SDS011;6134;59.284;18.022;2022-11-13T02:28:14;5.15;;;1.88;;
12141;SDS011;6134;59.284;18.022;2022-11-13T02:31:05;4.95;;;2.05;;
12141;SDS011;6134;59.284;18.022;2022-11-13T02:33:52;3.78;;;1.98;;
12141;SDS011;6134;59.284;18.022;2022-11-13T02:36:39;5.00;;;1.95;;
12141;SDS011;6134;59.284;18.022;2022-11-13T02:39:26;6.32;;;1.85;;
12141;SDS011;6134;59.284;18.022;2022-11-13T02:42:15;2.35;;;1.60;;
12141;SDS011;6134;59.284;18.022;2022-11-13T02:45:03;5.43;;;2.00;;
12141;SDS011;6134;59.284;18.022;2022-11-13T02:47:50;4.93;;;2.00;;
12141;SDS011;6134;59.284;18.022;2022-11-13T02:50:44;6.10;;;2.63;;
12141;SDS011;6134;59.284;18.022;2022-11-13T02:53:31;3.13;;;2.05;;
12141;SDS011;6134;59.284;18.022;2022-11-13T02:56:18;4.28;;;2.10;;
12141;SDS011;6134;59.284;18.022;2022-11-13T02:59:07;4.28;;;1.90;;
12141;SDS011;6134;59.284;18.022;2022-11-13T03:01:55;3.08;;;1.73;;
12141;SDS011;6134;59.284;18.022;2022-11-13T03:04:42;4.03;;;1.80;;
12141;SDS011;6134;59.284;18.022;2022-11-13T03:07:50;2.72;;;1.65;;
12141;SDS011;6134;59.284;18.022;2022-11-13T03:10:37;3.40;;;1.90;;
12141;SDS011;6134;59.284;18.022;2022-11-13T03:13:24;4.57;;;2.10;;
12141;SDS011;6134;59.284;18.022;2022-11-13T03:16:14;4.35;;;2.95;;
12141;SDS011;6134;59.284;18.022;2022-11-13T03:19:01;3.70;;;2.65;;
12141;SDS011;6134;59.284;18.022;2022-11-13T03:21:48;4.80;;;3.38;;
12141;SDS011;6134;59.284;18.022;2022-11-13T03:24:36;4.70;;;2.95;;
12141;SDS011;6134;59.284;18.022;2022-11-13T03:27:22;4.30;;;3.30;;
12141;SDS011;6134;59.284;18.022;2022-11-13T03:30:10;6.68;;;3.05;;
12141;SDS011;6134;59.284;18.022;2022-11-13T03:32:59;7.97;;;3.15;;
12141;SDS011;6134;59.284;18.022;2022-11-13T03:35:46;6.18;;;3.15;;
12141;SDS011;6134;59.284;18.022;2022-11-13T03:38:34;5.07;;;3.08;;
12141;SDS011;6134;59.284;18.022;2022-11-13T03:41:23;6.00;;;2.65;;
12141;SDS011;6134;59.284;18.022;2022-11-13T03:44:10;4.22;;;2.75;;
12141;SDS011;6134;59.284;18.022;2022-11-13T03:46:58;5.05;;;2.70;;
12141;SDS011;6134;59.284;18.022;2022-11-13T03:49:46;2.90;;;2.25;;
12141;SDS011;6134;59.284;18.022;2022-11-13T03:52:33;5.47;;;2.40;;
12141;SDS011;6134;59.284;18.022;2022-11-13T03:55:21;2.58;;;2.30;;
12141;SDS011;6134;59.284;18.022;2022-11-13T03:58:08;4.47;;;2.50;;
12141;SDS011;6134;59.284;18.022;2022-11-13T04:00:55;4.80;;;2.83;;
12141;SDS011;6134;59.284;18.022;2022-11-13T04:03:42;4.45;;;3.00;;
12141;SDS011;6134;59.284;18.022;2022-11-13T04:06:31;3.75;;;2.50;;
12141;SDS011;6134;59.284;18.022;2022-11-13T04:09:18;5.63;;;2.92;;
12141;SDS011;6134;59.284;18.022;2022-11-13T04:12:05;5.65;;;3.40;;
12141;SDS011;6134;59.284;18.022;2022-11-13T04:14:53;6.63;;;3.60;;
12141;SDS011;6134;59.284;18.022;2022-11-13T04:17:40;4.25;;;3.55;;
12141;SDS011;6134;59.284;18.022;2022-11-13T04:20:28;5.45;;;3.28;;
12141;SDS011;6134;59.284;18.022;2022-11-13T04:23:16;5.60;;;3.60;;
12141;SDS011;6134;59.284;18.022;2022-11-13T04:26:04;4.15;;;3.20;;
12141;SDS011;6134;59.284;18.022;2022-11-13T04:28:51;4.63;;;3.20;;
12141;SDS011;6134;59.284;18.022;2022-11-13T04:31:38;7.32;;;3.30;;
12141;SDS011;6134;59.284;18.022;2022-11-13T04:34:25;6.80;;;3.50;;
12141;SDS011;6134;59.284;18.022;2022-11-13T04:37:12;5.50;;;3.50;;
12141;SDS011;6134;59.284;18.022;2022-11-13T04:40:01;4.80;;;3.42;;
12141;SDS011;6134;59.284;18.022;2022-11-13T04:42:48;4.30;;;3.30;;
12141;SDS011;6134;59.284;18.022;2022-11-13T04:45:34;7.80;;;3.90;;
12141;SDS011;6134;59.284;18.022;2022-11-13T04:48:21;7.07;;;3.55;;
12141;SDS011;6134;59.284;18.022;2022-11-13T04:51:09;6.50;;;3.67;;
12141;SDS011;6134;59.284;18.022;2022-11-13T04:53:56;5.43;;;3.42;;
12141;SDS011;6134;59.284;18.022;2022-11-13T04:56:45;6.15;;;3.97;;
12141;SDS011;6134;59.284;18.022;2022-11-13T04:59:34;5.63;;;3.17;;
12141;SDS011;6134;59.284;18.022;2022-11-13T05:02:21;4.05;;;2.65;;
12141;SDS011;6134;59.284;18.022;2022-11-13T05:05:08;9.13;;;3.35;;
12141;SDS011;6134;59.284;18.022;2022-11-13T05:07:56;4.22;;;3.10;;
12141;SDS011;6134;59.284;18.022;2022-11-13T05:10:43;3.90;;;3.15;;
12141;SDS011;6134;59.284;18.022;2022-11-13T05:13:32;5.85;;;3.40;;
12141;SDS011;6134;59.284;18.022;2022-11-13T05:16:20;5.30;;;2.60;;
12141;SDS011;6134;59.284;18.022;2022-11-13T05:19:07;5.05;;;2.85;;
12141;SDS011;6134;59.284;18.022;2022-11-13T05:21:54;3.83;;;3.05;;
12141;SDS011;6134;59.284;18.022;2022-11-13T05:24:41;4.78;;;3.30;;
12141;SDS011;6134;59.284;18.022;2022-11-13T05:27:29;4.03;;;3.13;;
12141;SDS011;6134;59.284;18.022;2022-11-13T05:30:17;5.90;;;3.40;;
12141;SDS011;6134;59.284;18.022;2022-11-13T05:33:05;5.50;;;3.60;;
12141;SDS011;6134;59.284;18.022;2022-11-13T05:35:52;4.20;;;3.30;;
12141;SDS011;6134;59.284;18.022;2022-11-13T05:38:39;6.15;;;3.08;;
12141;SDS011;6134;59.284;18.022;2022-11-13T05:41:26;5.40;;;2.72;;
12141;SDS011;6134;59.284;18.022;2022-11-13T05:44:14;4.35;;;3.10;;
12141;SDS011;6134;59.284;18.022;2022-11-13T05:47:02;3.72;;;2.80;;
12141;SDS011;6134;59.284;18.022;2022-11-13T05:49:49;4.75;;;3.22;;
12141;SDS011;6134;59.284;18.022;2022-11-13T05:52:36;3.70;;;3.05;;
12141;SDS011;6134;59.284;18.022;2022-11-13T05:55:23;6.80;;;3.40;;
12141;SDS011;6134;59.284;18.022;2022-11-13T05:58:10;5.93;;;2.88;;
12141;SDS011;6134;59.284;18.022;2022-11-13T06:01:04;5.25;;;2.80;;
12141;SDS011;6134;59.284;18.022;2022-11-13T06:03:53;4.03;;;2.47;;
12141;SDS011;6134;59.284;18.022;2022-11-13T06:06:40;4.93;;;2.78;;
12141;SDS011;6134;59.284;18.022;2022-11-13T06:09:28;8.30;;;3.03;;
12141;SDS011;6134;59.284;18.022;2022-11-13T06:12:15;5.22;;;2.80;;
12141;SDS011;6134;59.284;18.022;2022-11-13T06:15:02;5.30;;;2.90;;
12141;SDS011;6134;59.284;18.022;2022-11-13T06:17:49;6.93;;;2.65;;
12141;SDS011;6134;59.284;18.022;2022-11-13T06:20:37;5.63;;;3.42;;
12141;SDS011;6134;59.284;18.022;2022-11-13T06:23:25;5.05;;;2.97;;
12141;SDS011;6134;59.284;18.022;2022-11-13T06:26:12;5.35;;;3.33;;
12141;SDS011;6134;59.284;18.022;2022-11-13T06:29:00;4.68;;;3.42;;
12141;SDS011;6134;59.284;18.022;2022-11-13T06:31:48;8.05;;;3.88;;
12141;SDS011;6134;59.284;18.022;2022-11-13T06:34:35;7.72;;;4.03;;
12141;SDS011;6134;59.284;18.022;2022-11-13T06:37:24;12.88;;;4.85;;
12141;SDS011;6134;59.284;18.022;2022-11-13T06:40:16;8.57;;;4.70;;
12141;SDS011;6134;59.284;18.022;2022-11-13T06:43:03;5.65;;;4.20;;
12141;SDS011;6134;59.284;18.022;2022-11-13T06:45:51;9.07;;;4.50;;
12141;SDS011;6134;59.284;18.022;2022-11-13T06:48:38;6.78;;;4.32;;
12141;SDS011;6134;59.284;18.022;2022-11-13T06:51:25;6.85;;;3.75;;
12141;SDS011;6134;59.284;18.022;2022-11-13T06:54:14;6.55;;;3.70;;
12141;SDS011;6134;59.284;18.022;2022-11-13T06:57:02;7.63;;;3.50;;
12141;SDS011;6134;59.284;18.022;2022-11-13T06:59:49;8.13;;;4.07;;
12141;SDS011;6134;59.284;18.022;2022-11-13T07:02:36;6.72;;;4.03;;
12141;SDS011;6134;59.284;18.022;2022-11-13T07:05:23;6.90;;;3.83;;
12141;SDS011;6134;59.284;18.022;2022-11-13T07:08:11;5.55;;;3.38;;
12141;SDS011;6134;59.284;18.022;2022-11-13T07:10:59;6.10;;;3.47;;
12141;SDS011;6134;59.284;18.022;2022-11-13T07:13:46;5.05;;;3.55;;
12141;SDS011;6134;59.284;18.022;2022-11-13T07:16:34;8.35;;;3.92;;
12141;SDS011;6134;59.284;18.022;2022-11-13T07:19:41;4.78;;;3.50;;
12141;SDS011;6134;59.284;18.022;2022-11-13T07:22:28;7.30;;;3.55;;
12141;SDS011;6134;59.284;18.022;2022-11-13T07:25:16;6.45;;;3.58;;
12141;SDS011;6134;59.284;18.022;2022-11-13T07:28:05;6.35;;;3.25;;
12141;SDS011;6134;59.284;18.022;2022-11-13T07:30:52;5.85;;;3.50;;
12141;SDS011;6134;59.284;18.022;2022-11-13T07:33:39;6.57;;;3.45;;
12141;SDS011;6134;59.284;18.022;2022-11-13T07:36:27;5.97;;;3.85;;
12141;SDS011;6134;59.284;18.022;2022-11-13T07:39:14;7.93;;;3.83;;
12141;SDS011;6134;59.284;18.022;2022-11-13T07:42:02;6.00;;;3.65;;
12141;SDS011;6134;59.284;18.022;2022-11-13T07:44:50;9.75;;;3.63;;
12141;SDS011;6134;59.284;18.022;2022-11-13T07:47:40;6.22;;;3.60;;
12141;SDS011;6134;59.284;18.022;2022-11-13T07:50:27;7.68;;;3.50;;
12141;SDS011;6134;59.284;18.022;2022-11-13T07:53:15;8.23;;;3.90;;
12141;SDS011;6134;59.284;18.022;2022-11-13T07:56:03;5.60;;;3.55;;
12141;SDS011;6134;59.284;18.022;2022-11-13T07:58:50;7.30;;;4.43;;
12141;SDS011;6134;59.284;18.022;2022-11-13T08:01:39;9.82;;;5.80;;
12141;SDS011;6134;59.284;18.022;2022-11-13T08:04:26;11.57;;;6.18;;
12141;SDS011;6134;59.284;18.022;2022-11-13T08:07:13;9.50;;;5.85;;
12141;SDS011;6134;59.284;18.022;2022-11-13T08:10:00;11.07;;;5.63;;
12141;SDS011;6134;59.284;18.022;2022-11-13T08:12:47;8.07;;;5.53;;
12141;SDS011;6134;59.284;18.022;2022-11-13T08:15:34;11.13;;;5.85;;
12141;SDS011;6134;59.284;18.022;2022-11-13T08:18:23;9.18;;;4.97;;
12141;SDS011;6134;59.284;18.022;2022-11-13T08:21:11;13.27;;;5.47;;
12141;SDS011;6134;59.284;18.022;2022-11-13T08:23:59;11.50;;;4.97;;
12141;SDS011;6134;59.284;18.022;2022-11-13T08:26:46;10.27;;;5.05;;
12141;SDS011;6134;59.284;18.022;2022-11-13T08:29:33;7.40;;;3.80;;
12141;SDS011;6134;59.284;18.022;2022-11-13T08:32:21;6.47;;;3.90;;
12141;SDS011;6134;59.284;18.022;2022-11-13T08:35:10;6.18;;;4.07;;
12141;SDS011;6134;59.284;18.022;2022-11-13T08:38:04;9.05;;;4.22;;
12141;SDS011;6134;59.284;18.022;2022-11-13T08:40:51;11.18;;;4.93;;
12141;SDS011;6134;59.284;18.022;2022-11-13T08:43:38;7.05;;;4.05;;
12141;SDS011;6134;59.284;18.022;2022-11-13T08:46:25;8.02;;;4.18;;
12141;SDS011;6134;59.284;18.022;2022-11-13T08:49:12;6.25;;;4.25;;
12141;SDS011;6134;59.284;18.022;2022-11-13T08:52:01;9.32;;;4.88;;
12141;SDS011;6134;59.284;18.022;2022-11-13T08:54:49;9.48;;;4.25;;
12141;SDS011;6134;59.284;18.022;2022-11-13T08:57:37;11.88;;;4.50;;
12141;SDS011;6134;59.284;18.022;2022-11-13T09:00:24;9.13;;;4.88;;
12141;SDS011;6134;59.284;18.022;2022-11-13T09:03:12;7.78;;;4.63;;
12141;SDS011;6134;59.284;18.022;2022-11-13T09:05:59;10.70;;;4.68;;
12141;SDS011;6134;59.284;18.022;2022-11-13T09:08:48;6.05;;;3.65;;
12141;SDS011;6134;59.284;18.022;2022-11-13T09:11:38;8.85;;;4.88;;
12141;SDS011;6134;59.284;18.022;2022-11-13T09:14:25;10.75;;;4.53;;
12141;SDS011;6134;59.284;18.022;2022-11-13T09:17:14;10.93;;;5.10;;
12141;SDS011;6134;59.284;18.022;2022-11-13T09:20:06;8.68;;;5.13;;
12141;SDS011;6134;59.284;18.022;2022-11-13T09:22:58;12.48;;;4.63;;
12141;SDS011;6134;59.284;18.022;2022-11-13T09:25:47;14.88;;;6.22;;
12141;SDS011;6134;59.284;18.022;2022-11-13T09:28:34;12.63;;;5.63;;
12141;SDS011;6134;59.284;18.022;2022-11-13T09:31:22;11.57;;;5.97;;
12141;SDS011;6134;59.284;18.022;2022-11-13T09:34:09;14.20;;;5.88;;
12141;SDS011;6134;59.284;18.022;2022-11-13T09:36:56;10.98;;;5.60;;
12141;SDS011;6134;59.284;18.022;2022-11-13T09:39:43;10.70;;;5.63;;
12141;SDS011;6134;59.284;18.022;2022-11-13T09:42:32;9.68;;;6.00;;
12141;SDS011;6134;59.284;18.022;2022-11-13T09:45:20;12.15;;;5.55;;
12141;SDS011;6134;59.284;18.022;2022-11-13T09:48:11;9.57;;;5.07;;
12141;SDS011;6134;59.284;18.022;2022-11-13T09:50:59;9.55;;;5.90;;
12141;SDS011;6134;59.284;18.022;2022-11-13T09:53:49;9.88;;;5.85;;
12141;SDS011;6134;59.284;18.022;2022-11-13T09:56:38;8.40;;;5.50;;
12141;SDS011;6134;59.284;18.022;2022-11-13T09:59:28;11.20;;;5.07;;
12141;SDS011;6134;59.284;18.022;2022-11-13T10:02:19;10.13;;;4.88;;
12141;SDS011;6134;59.284;18.022;2022-11-13T10:05:12;7.90;;;5.05;;
12141;SDS011;6134;59.284;18.022;2022-11-13T10:08:00;6.25;;;4.10;;
12141;SDS011;6134;59.284;18.022;2022-11-13T10:10:54;8.30;;;4.60;;
12141;SDS011;6134;59.284;18.022;2022-11-13T10:13:42;11.00;;;4.40;;
12141;SDS011;6134;59.284;18.022;2022-11-13T10:16:32;6.93;;;3.92;;
12141;SDS011;6134;59.284;18.022;2022-11-13T10:19:30;4.63;;;3.65;;
12141;SDS011;6134;59.284;18.022;2022-11-13T10:22:19;5.97;;;3.47;;
12141;SDS011;6134;59.284;18.022;2022-11-13T10:25:18;6.85;;;4.03;;
12141;SDS011;6134;59.284;18.022;2022-11-13T10:28:10;4.03;;;3.45;;
12141;SDS011;6134;59.284;18.022;2022-11-13T10:31:17;4.18;;;2.90;;
12141;SDS011;6134;59.284;18.022;2022-11-13T10:34:06;4.75;;;2.92;;
12141;SDS011;6134;59.284;18.022;2022-11-13T10:36:57;4.50;;;2.63;;
12141;SDS011;6134;59.284;18.022;2022-11-13T10:39:46;5.10;;;2.85;;
12141;SDS011;6134;59.284;18.022;2022-11-13T10:42:35;4.20;;;2.70;;
12141;SDS011;6134;59.284;18.022;2022-11-13T10:45:23;3.47;;;2.35;;
12141;SDS011;6134;59.284;18.022;2022-11-13T10:48:20;2.85;;;2.20;;
12141;SDS011;6134;59.284;18.022;2022-11-13T10:51:19;2.97;;;2.42;;
12141;SDS011;6134;59.284;18.022;2022-11-13T10:54:18;3.95;;;2.83;;
12141;SDS011;6134;59.284;18.022;2022-11-13T10:57:17;4.07;;;2.72;;
12141;SDS011;6134;59.284;18.022;2022-11-13T11:00:17;3.70;;;2.80;;
12141;SDS011;6134;59.284;18.022;2022-11-13T11:03:06;6.95;;;3.53;;
12141;SDS011;6134;59.284;18.022;2022-11-13T11:05:54;6.18;;;3.90;;
12141;SDS011;6134;59.284;18.022;2022-11-13T11:08:43;7.88;;;4.68;;
12141;SDS011;6134;59.284;18.022;2022-11-13T11:11:30;5.47;;;3.97;;
12141;SDS011;6134;59.284;18.022;2022-11-13T11:14:36;6.65;;;4.03;;
12141;SDS011;6134;59.284;18.022;2022-11-13T11:17:26;7.30;;;3.97;;
12141;SDS011;6134;59.284;18.022;2022-11-13T11:20:22;9.15;;;4.40;;
12141;SDS011;6134;59.284;18.022;2022-11-13T11:23:14;15.57;;;5.28;;
12141;SDS011;6134;59.284;18.022;2022-11-13T11:26:05;8.02;;;3.85;;
12141;SDS011;6134;59.284;18.022;2022-11-13T11:28:59;9.65;;;4.03;;
12141;SDS011;6134;59.284;18.022;2022-11-13T11:31:49;9.98;;;3.58;;
12141;SDS011;6134;59.284;18.022;2022-11-13T11:34:38;6.75;;;3.00;;
12141;SDS011;6134;59.284;18.022;2022-11-13T11:37:27;7.32;;;4.07;;
12141;SDS011;6134;59.284;18.022;2022-11-13T11:40:18;8.55;;;4.13;;
12141;SDS011;6134;59.284;18.022;2022-11-13T11:43:13;8.35;;;3.50;;
12141;SDS011;6134;59.284;18.022;2022-11-13T11:46:02;13.57;;;3.72;;
12141;SDS011;6134;59.284;18.022;2022-11-13T11:48:49;5.05;;;3.00;;
12141;SDS011;6134;59.284;18.022;2022-11-13T11:51:39;8.02;;;2.70;;
12141;SDS011;6134;59.284;18.022;2022-11-13T11:54:38;5.65;;;2.03;;
12141;SDS011;6134;59.284;18.022;2022-11-13T11:57:31;7.05;;;2.30;;
12141;SDS011;6134;59.284;18.022;2022-11-13T12:00:24;3.33;;;1.80;;
12141;SDS011;6134;59.284;18.022;2022-11-13T12:06:16;8.20;;;2.22;;
12141;SDS011;6134;59.284;18.022;2022-11-13T12:09:07;6.10;;;2.65;;
12141;SDS011;6134;59.284;18.022;2022-11-13T12:11:57;4.93;;;2.03;;
12141;SDS011;6134;59.284;18.022;2022-11-13T12:14:48;5.88;;;2.33;;
12141;SDS011;6134;59.284;18.022;2022-11-13T12:17:40;5.70;;;2.13;;
12141;SDS011;6134;59.284;18.022;2022-11-13T12:20:32;5.35;;;2.25;;
12141;SDS011;6134;59.284;18.022;2022-11-13T12:23:25;6.68;;;2.00;;
12141;SDS011;6134;59.284;18.022;2022-11-13T12:26:16;4.78;;;2.00;;
12141;SDS011;6134;59.284;18.022;2022-11-13T12:29:07;6.90;;;2.30;;
12141;SDS011;6134;59.284;18.022;2022-11-13T12:32:01;5.30;;;2.10;;
12141;SDS011;6134;59.284;18.022;2022-11-13T12:34:54;6.53;;;2.65;;
12141;SDS011;6134;59.284;18.022;2022-11-13T12:37:45;9.85;;;3.05;;
12141;SDS011;6134;59.284;18.022;2022-11-13T12:40:35;5.07;;;2.03;;
12141;SDS011;6134;59.284;18.022;2022-11-13T12:46:33;9.23;;;2.35;;
12141;SDS011;6134;59.284;18.022;2022-11-13T12:49:24;4.28;;;2.35;;
12141;SDS011;6134;59.284;18.022;2022-11-13T12:52:17;8.23;;;2.30;;
12141;SDS011;6134;59.284;18.022;2022-11-13T12:55:08;8.90;;;2.35;;
12141;SDS011;6134;59.284;18.022;2022-11-13T12:58:16;5.43;;;2.15;;
12141;SDS011;6134;59.284;18.022;2022-11-13T13:01:05;6.82;;;2.40;;
12141;SDS011;6134;59.284;18.022;2022-11-13T13:07:06;8.88;;;3.38;;
12141;SDS011;6134;59.284;18.022;2022-11-13T13:09:59;8.65;;;2.97;;
12141;SDS011;6134;59.284;18.022;2022-11-13T13:12:53;8.02;;;2.92;;
12141;SDS011;6134;59.284;18.022;2022-11-13T13:15:42;11.48;;;3.35;;
12141;SDS011;6134;59.284;18.022;2022-11-13T13:18:31;7.05;;;2.55;;
12141;SDS011;6134;59.284;18.022;2022-11-13T13:21:19;13.20;;;3.00;;
12141;SDS011;6134;59.284;18.022;2022-11-13T13:24:07;5.65;;;2.08;;
12141;SDS011;6134;59.284;18.022;2022-11-13T13:26:57;10.30;;;2.47;;
12141;SDS011;6134;59.284;18.022;2022-11-13T13:29:45;5.90;;;2.75;;
12141;SDS011;6134;59.284;18.022;2022-11-13T13:32:33;8.07;;;2.40;;
12141;SDS011;6134;59.284;18.022;2022-11-13T13:35:24;12.50;;;4.63;;
12141;SDS011;6134;59.284;18.022;2022-11-13T13:38:14;10.90;;;3.13;;
12141;SDS011;6134;59.284;18.022;2022-11-13T13:41:11;12.30;;;2.80;;
12141;SDS011;6134;59.284;18.022;2022-11-13T13:47:05;10.27;;;2.60;;
12141;SDS011;6134;59.284;18.022;2022-11-13T13:49:56;6.35;;;2.63;;
12141;SDS011;6134;59.284;18.022;2022-11-13T13:52:43;5.95;;;3.13;;
12141;SDS011;6134;59.284;18.022;2022-11-13T13:55:43;8.55;;;3.00;;
12141;SDS011;6134;59.284;18.022;2022-11-13T13:58:32;11.07;;;3.58;;
12141;SDS011;6134;59.284;18.022;2022-11-13T14:01:26;12.23;;;3.65;;
12141;SDS011;6134;59.284;18.022;2022-11-13T14:04:16;4.95;;;2.38;;
12141;SDS011;6134;59.284;18.022;2022-11-13T14:07:05;9.85;;;3.10;;
12141;SDS011;6134;59.284;18.022;2022-11-13T14:10:05;7.45;;;4.03;;
12141;SDS011;6134;59.284;18.022;2022-11-13T14:12:52;9.25;;;4.07;;
12141;SDS011;6134;59.284;18.022;2022-11-13T14:15:41;6.25;;;3.92;;
12141;SDS011;6134;59.284;18.022;2022-11-13T14:18:28;9.95;;;3.75;;
12141;SDS011;6134;59.284;18.022;2022-11-13T14:21:18;9.10;;;3.20;;
12141;SDS011;6134;59.284;18.022;2022-11-13T14:24:08;9.68;;;3.28;;
12141;SDS011;6134;59.284;18.022;2022-11-13T14:26:56;8.55;;;3.20;;
12141;SDS011;6134;59.284;18.022;2022-11-13T14:29:44;13.35;;;3.65;;
12141;SDS011;6134;59.284;18.022;2022-11-13T14:32:33;10.88;;;2.97;;
12141;SDS011;6134;59.284;18.022;2022-11-13T14:35:31;9.73;;;3.38;;
12141;SDS011;6134;59.284;18.022;2022-11-13T14:38:20;10.02;;;3.30;;
12141;SDS011;6134;59.284;18.022;2022-11-13T14:41:14;6.45;;;3.75;;
12141;SDS011;6134;59.284;18.022;2022-11-13T14:44:05;10.85;;;4.20;;
12141;SDS011;6134;59.284;18.022;2022-11-13T14:46:57;11.75;;;4.07;;
12141;SDS011;6134;59.284;18.022;2022-11-13T14:49:44;13.45;;;4.15;;
12141;SDS011;6134;59.284;18.022;2022-11-13T14:52:31;11.60;;;4.63;;
12141;SDS011;6134;59.284;18.022;2022-11-13T14:55:20;13.30;;;4.65;;
12141;SDS011;6134;59.284;18.022;2022-11-13T14:58:10;10.95;;;4.07;;
12141;SDS011;6134;59.284;18.022;2022-11-13T15:00:58;9.55;;;3.83;;
12141;SDS011;6134;59.284;18.022;2022-11-13T15:03:46;10.32;;;3.55;;
12141;SDS011;6134;59.284;18.022;2022-11-13T15:06:35;10.65;;;3.35;;
12141;SDS011;6134;59.284;18.022;2022-11-13T15:09:23;13.32;;;3.35;;
12141;SDS011;6134;59.284;18.022;2022-11-13T15:12:12;9.98;;;2.50;;
12141;SDS011;6134;59.284;18.022;2022-11-13T15:14:59;5.80;;;2.80;;
12141;SDS011;6134;59.284;18.022;2022-11-13T15:17:47;6.20;;;3.53;;
12141;SDS011;6134;59.284;18.022;2022-11-13T15:20:35;7.97;;;4.10;;
12141;SDS011;6134;59.284;18.022;2022-11-13T15:23:23;14.02;;;6.10;;
12141;SDS011;6134;59.284;18.022;2022-11-13T15:26:13;15.40;;;5.65;;
12141;SDS011;6134;59.284;18.022;2022-11-13T15:29:01;9.35;;;4.50;;
12141;SDS011;6134;59.284;18.022;2022-11-13T15:31:48;14.25;;;5.70;;
12141;SDS011;6134;59.284;18.022;2022-11-13T15:34:36;7.38;;;4.40;;
12141;SDS011;6134;59.284;18.022;2022-11-13T15:37:23;9.48;;;5.55;;
12141;SDS011;6134;59.284;18.022;2022-11-13T15:40:10;10.35;;;5.20;;
12141;SDS011;6134;59.284;18.022;2022-11-13T15:42:58;8.10;;;4.63;;
12141;SDS011;6134;59.284;18.022;2022-11-13T15:45:47;13.35;;;6.22;;
12141;SDS011;6134;59.284;18.022;2022-11-13T15:48:34;11.32;;;6.53;;
12141;SDS011;6134;59.284;18.022;2022-11-13T15:51:23;14.55;;;7.03;;
12141;SDS011;6134;59.284;18.022;2022-11-13T15:54:12;12.95;;;7.38;;
12141;SDS011;6134;59.284;18.022;2022-11-13T15:57:00;13.48;;;6.43;;
12141;SDS011;6134;59.284;18.022;2022-11-13T15:59:47;11.57;;;5.40;;
12141;SDS011;6134;59.284;18.022;2022-11-13T16:02:36;8.90;;;4.35;;
12141;SDS011;6134;59.284;18.022;2022-11-13T16:05:24;12.57;;;4.10;;
12141;SDS011;6134;59.284;18.022;2022-11-13T16:08:13;7.15;;;4.47;;
12141;SDS011;6134;59.284;18.022;2022-11-13T16:11:01;9.73;;;5.35;;
12141;SDS011;6134;59.284;18.022;2022-11-13T16:13:48;13.93;;;5.93;;
12141;SDS011;6134;59.284;18.022;2022-11-13T16:16:36;14.57;;;5.45;;
12141;SDS011;6134;59.284;18.022;2022-11-13T16:19:25;11.90;;;7.82;;
12141;SDS011;6134;59.284;18.022;2022-11-13T16:22:16;10.48;;;6.43;;
12141;SDS011;6134;59.284;18.022;2022-11-13T16:25:04;12.63;;;5.10;;
12141;SDS011;6134;59.284;18.022;2022-11-13T16:27:52;9.60;;;5.13;;
12141;SDS011;6134;59.284;18.022;2022-11-13T16:30:39;13.60;;;5.53;;
12141;SDS011;6134;59.284;18.022;2022-11-13T16:33:26;10.27;;;5.03;;
12141;SDS011;6134;59.284;18.022;2022-11-13T16:36:18;10.50;;;5.07;;
12141;SDS011;6134;59.284;18.022;2022-11-13T16:39:05;10.68;;;5.18;;
12141;SDS011;6134;59.284;18.022;2022-11-13T16:41:55;12.07;;;5.57;;
12141;SDS011;6134;59.284;18.022;2022-11-13T16:44:42;15.07;;;5.40;;
12141;SDS011;6134;59.284;18.022;2022-11-13T16:47:29;7.72;;;4.07;;
12141;SDS011;6134;59.284;18.022;2022-11-13T16:50:18;10.52;;;4.80;;
12141;SDS011;6134;59.284;18.022;2022-11-13T16:53:09;9.15;;;5.25;;
12141;SDS011;6134;59.284;18.022;2022-11-13T16:55:56;13.25;;;6.00;;
12141;SDS011;6134;59.284;18.022;2022-11-13T16:58:43;12.35;;;6.80;;
12141;SDS011;6134;59.284;18.022;2022-11-13T17:01:30;14.10;;;8.32;;
12141;SDS011;6134;59.284;18.022;2022-11-13T17:04:18;14.52;;;7.05;;
12141;SDS011;6134;59.284;18.022;2022-11-13T17:07:05;12.77;;;7.22;;
12141;SDS011;6134;59.284;18.022;2022-11-13T17:09:55;14.88;;;6.82;;